Time;durP1;ratioP1;P1;durP2;ratioP2;P2;SDS_P1;SDS_P2;PMS_P1;PMS_P2;Temp;Humidity;BMP_temperature;BMP_pressure;BME280_temperature;BME280_humidity;BME280_pressure;Samples;Min_cycle;Max_cycle;Signal;HPM_P1;HPM_P2
2024/01/01 00:01:47;;;;;;;102.30;45.63;;;;;;;;;;5059035;28;20258;-80
2024/01/01 00:04:12;;;;;;;115.03;49.27;;;;;;;;;;5059201;28;20256;-80
2024/01/01 00:06:38;;;;;;;119.13;56.25;;;;;;;;;;5057565;28;20301;-80
2024/01/01 00:09:03;;;;;;;115.70;51.67;;;;;;;;;;5058952;28;20038;-81
2024/01/01 00:11:29;;;;;;;114.80;50.65;;;;;;;;;;5059461;28;20021;-80
2024/01/01 00:13:54;;;;;;;96.15;43.15;;;;;;;;;;5058715;28;20032;-81
2024/01/01 00:16:19;;;;;;;96.63;43.58;;;;;;;;;;5058111;28;20074;-79
2024/01/01 00:18:44;;;;;;;77.70;38.25;;;;;;;;;;5040284;28;20025;-79
2024/01/01 00:21:10;;;;;;;65.97;32.90;;;;;;;;;;5042931;28;20021;-79
2024/01/01 00:23:35;;;;;;;57.80;28.23;;;;;;;;;;5046167;28;20030;-79
2024/01/01 00:26:00;;;;;;;58.75;26.98;;;;;;;;;;5026919;28;20026;-79
2024/01/01 00:28:26;;;;;;;63.93;28.60;;;;;;;;;;5037316;28;20022;-80
2024/01/01 00:30:51;;;;;;;67.57;30.67;;;;;;;;;;5036727;28;20308;-78
2024/01/01 00:33:19;;;;;;;52.78;26.10;;;;;;;;;;5038032;28;20041;-79
2024/01/01 00:35:50;;;;;;;47.35;23.05;;;;;;;;;;5038487;28;20029;-80
2024/01/01 00:38:15;;;;;;;43.40;22.58;;;;;;;;;;5038420;28;20030;-80
2024/01/01 00:40:41;;;;;;;45.42;22.55;;;;;;;;;;5038342;28;20599;-80
2024/01/01 00:43:06;;;;;;;43.92;21.48;;;;;;;;;;5037833;28;20025;-80
2024/01/01 00:45:31;;;;;;;51.78;22.27;;;;;;;;;;5037813;28;20500;-80
2024/01/01 00:47:56;;;;;;;55.63;22.15;;;;;;;;;;5037971;28;20392;-80
2024/01/01 00:50:22;;;;;;;44.67;21.30;;;;;;;;;;5019791;28;20051;-80
2024/01/01 00:52:47;;;;;;;39.13;18.63;;;;;;;;;;5036914;28;20029;-80
2024/01/01 00:55:12;;;;;;;37.33;17.90;;;;;;;;;;5036621;28;20317;-80
2024/01/01 00:57:37;;;;;;;36.67;18.50;;;;;;;;;;5020276;28;20258;-80
2024/01/01 01:00:03;;;;;;;39.38;17.90;;;;;;;;;;5020368;28;20025;-80
2024/01/01 01:02:29;;;;;;;38.92;18.33;;;;;;;;;;5036034;28;20025;-80
2024/01/01 01:04:54;;;;;;;45.27;17.87;;;;;;;;;;5037721;28;20025;-80
2024/01/01 01:07:19;;;;;;;39.67;18.77;;;;;;;;;;5037552;28;20282;-80
2024/01/01 01:09:44;;;;;;;51.53;20.10;;;;;;;;;;5036494;28;20255;-80
2024/01/01 01:12:10;;;;;;;37.90;18.10;;;;;;;;;;5037733;28;20075;-80
2024/01/01 01:14:35;;;;;;;41.27;18.97;;;;;;;;;;5037699;28;20030;-80
2024/01/01 01:17:00;;;;;;;41.57;18.23;;;;;;;;;;5037067;28;20266;-80
2024/01/01 01:19:26;;;;;;;34.33;17.17;;;;;;;;;;5037405;28;20266;-80
2024/01/01 01:21:51;;;;;;;43.97;16.52;;;;;;;;;;5020077;28;20274;-80
2024/01/01 01:24:18;;;;;;;37.53;17.17;;;;;;;;;;5037302;28;20053;-80
2024/01/01 01:26:43;;;;;;;39.83;17.05;;;;;;;;;;5036737;28;20025;-80
2024/01/01 01:29:09;;;;;;;35.38;17.20;;;;;;;;;;5037720;28;20547;-79
2024/01/01 01:31:35;;;;;;;55.22;26.55;;;;;;;;;;5037014;28;20052;-79
2024/01/01 01:34:00;;;;;;;57.65;26.08;;;;;;;;;;5037584;28;20041;-80
2024/01/01 01:36:25;;;;;;;54.22;22.98;;;;;;;;;;5037582;28;20434;-81
2024/01/01 01:38:50;;;;;;;54.35;22.98;;;;;;;;;;5037026;28;20063;-81
2024/01/01 01:41:15;;;;;;;53.47;23.00;;;;;;;;;;5035632;28;20108;-80
2024/01/01 01:43:41;;;;;;;49.40;20.77;;;;;;;;;;5036457;28;20290;-80
2024/01/01 01:46:06;;;;;;;51.53;21.07;;;;;;;;;;5035202;28;20265;-80
2024/01/01 01:48:31;;;;;;;52.30;21.05;;;;;;;;;;5036386;28;20270;-79
2024/01/01 01:50:57;;;;;;;50.53;20.85;;;;;;;;;;5035667;28;20044;-79
2024/01/01 01:53:26;;;;;;;49.60;21.92;;;;;;;;;;5036531;28;20041;-80
2024/01/01 01:55:54;;;;;;;52.42;21.45;;;;;;;;;;5036086;28;20037;-80
2024/01/01 01:58:20;;;;;;;41.03;19.88;;;;;;;;;;5018297;28;20072;-80
2024/01/01 02:00:47;;;;;;;40.40;16.95;;;;;;;;;;5036933;28;20025;-80
2024/01/01 02:03:13;;;;;;;42.60;18.15;;;;;;;;;;5019128;28;20112;-80
2024/01/01 02:05:38;;;;;;;36.80;16.15;;;;;;;;;;5018548;28;20067;-79
2024/01/01 02:08:05;;;;;;;33.15;14.88;;;;;;;;;;5036863;28;20100;-80
2024/01/01 02:10:30;;;;;;;30.42;13.05;;;;;;;;;;5036618;28;20033;-80
2024/01/01 02:12:56;;;;;;;28.83;13.00;;;;;;;;;;5037162;28;20036;-80
2024/01/01 02:15:21;;;;;;;27.85;13.07;;;;;;;;;;5035630;28;20094;-80
2024/01/01 02:17:50;;;;;;;29.77;12.32;;;;;;;;;;5036356;28;20085;-79
2024/01/01 02:20:15;;;;;;;34.28;12.95;;;;;;;;;;5036872;28;20057;-79
2024/01/01 02:22:41;;;;;;;26.60;12.10;;;;;;;;;;5036888;28;20388;-80
2024/01/01 02:25:10;;;;;;;27.63;12.38;;;;;;;;;;5036173;28;20606;-80
2024/01/01 02:27:36;;;;;;;24.13;10.60;;;;;;;;;;5036859;28;20048;-80
2024/01/01 02:30:03;;;;;;;25.58;11.02;;;;;;;;;;5022044;28;20102;-80
2024/01/01 02:32:28;;;;;;;24.80;11.52;;;;;;;;;;5022859;28;20021;-80
2024/01/01 02:34:54;;;;;;;20.52;10.00;;;;;;;;;;5040785;28;20029;-80
2024/01/01 02:37:19;;;;;;;21.53;9.80;;;;;;;;;;5023167;28;20033;-80
2024/01/01 02:39:44;;;;;;;19.53;10.00;;;;;;;;;;5039378;28;20261;-80
2024/01/01 02:42:09;;;;;;;23.27;9.65;;;;;;;;;;5039954;28;20259;-80
2024/01/01 02:44:35;;;;;;;24.50;9.88;;;;;;;;;;5040695;28;20024;-80
2024/01/01 02:47:00;;;;;;;19.37;9.77;;;;;;;;;;5040667;28;20052;-80
2024/01/01 02:49:25;;;;;;;24.43;11.07;;;;;;;;;;5040762;28;20250;-80
2024/01/01 02:51:50;;;;;;;19.43;10.27;;;;;;;;;;5040739;28;20254;-79
2024/01/01 02:54:15;;;;;;;20.77;9.90;;;;;;;;;;5039222;28;20293;-79
2024/01/01 02:56:41;;;;;;;21.23;9.07;;;;;;;;;;5040017;28;20254;-80
2024/01/01 02:59:06;;;;;;;22.08;10.40;;;;;;;;;;5040300;28;20033;-79
2024/01/01 03:01:31;;;;;;;18.00;9.48;;;;;;;;;;5040337;28;20033;-79
2024/01/01 03:03:57;;;;;;;23.50;10.07;;;;;;;;;;5039694;28;20083;-79
2024/01/01 03:06:22;;;;;;;26.30;10.20;;;;;;;;;;5040001;28;20060;-80
2024/01/01 03:08:47;;;;;;;21.35;9.55;;;;;;;;;;5039274;28;20285;-79
2024/01/01 03:11:12;;;;;;;21.80;10.02;;;;;;;;;;5040234;28;20049;-80
2024/01/01 03:13:41;;;;;;;22.95;9.85;;;;;;;;;;5040294;28;20546;-80
2024/01/01 03:16:06;;;;;;;21.88;9.40;;;;;;;;;;5038695;28;20025;-80
2024/01/01 03:18:31;;;;;;;20.13;9.15;;;;;;;;;;5039492;28;20030;-80
2024/01/01 03:20:57;;;;;;;16.80;8.30;;;;;;;;;;5037591;28;20078;-80
2024/01/01 03:23:23;;;;;;;24.63;9.65;;;;;;;;;;5038598;28;20033;-80
2024/01/01 03:25:48;;;;;;;16.88;8.15;;;;;;;;;;5038988;28;20033;-79
2024/01/01 03:28:13;;;;;;;20.58;8.32;;;;;;;;;;5038177;28;20052;-80
2024/01/01 03:30:38;;;;;;;16.60;8.55;;;;;;;;;;5038141;28;20385;-79
2024/01/01 03:33:04;;;;;;;19.57;8.23;;;;;;;;;;5045018;28;20025;-78
2024/01/01 03:35:32;;;;;;;18.15;8.02;;;;;;;;;;5052639;28;20314;-79
2024/01/01 03:38:01;;;;;;;17.00;7.43;;;;;;;;;;5052152;28;20032;-80
2024/01/01 03:40:26;;;;;;;16.83;7.97;;;;;;;;;;5038895;28;20104;-80
2024/01/01 03:42:52;;;;;;;20.45;7.65;;;;;;;;;;5039439;28;20506;-80
2024/01/01 03:45:18;;;;;;;17.25;7.63;;;;;;;;;;5038225;28;20068;-79
2024/01/01 03:47:43;;;;;;;15.13;7.70;;;;;;;;;;5038306;28;20032;-80
2024/01/01 03:50:08;;;;;;;18.17;7.23;;;;;;;;;;5036063;28;20100;-79
2024/01/01 03:52:34;;;;;;;14.00;7.32;;;;;;;;;;5036242;28;20340;-80
2024/01/01 03:54:59;;;;;;;17.30;7.82;;;;;;;;;;5037326;28;20025;-80
2024/01/01 03:57:24;;;;;;;16.67;8.02;;;;;;;;;;5037734;28;20017;-79
2024/01/01 03:59:50;;;;;;;18.10;8.32;;;;;;;;;;5037735;28;20568;-80
2024/01/01 04:02:15;;;;;;;19.30;7.78;;;;;;;;;;5037681;28;20441;-79
2024/01/01 04:04:44;;;;;;;16.70;7.88;;;;;;;;;;5038372;28;20087;-80
2024/01/01 04:07:09;;;;;;;17.73;8.07;;;;;;;;;;5020157;28;20449;-80
2024/01/01 04:09:34;;;;;;;14.32;7.90;;;;;;;;;;5038147;28;20036;-80
2024/01/01 04:11:59;;;;;;;18.57;7.50;;;;;;;;;;5038036;28;20041;-80
2024/01/01 04:14:25;;;;;;;17.42;7.80;;;;;;;;;;5038372;28;20271;-80
2024/01/01 04:16:50;;;;;;;22.33;8.05;;;;;;;;;;5038439;28;20162;-80
2024/01/01 04:19:15;;;;;;;17.42;8.35;;;;;;;;;;5038386;28;20071;-80
2024/01/01 04:21:41;;;;;;;20.42;8.35;;;;;;;;;;5038138;28;20033;-79
2024/01/01 04:24:09;;;;;;;18.88;8.35;;;;;;;;;;5038943;28;20590;-79
2024/01/01 04:26:37;;;;;;;18.33;8.48;;;;;;;;;;5036832;28;20511;-79
2024/01/01 04:29:02;;;;;;;16.30;8.25;;;;;;;;;;5038010;28;20511;-79
2024/01/01 04:31:28;;;;;;;18.58;7.70;;;;;;;;;;5019861;28;20021;-79
2024/01/01 04:33:53;;;;;;;18.50;7.40;;;;;;;;;;5038552;28;20564;-79
2024/01/01 04:36:18;;;;;;;15.70;7.10;;;;;;;;;;5037981;28;20072;-79
2024/01/01 04:38:43;;;;;;;18.35;6.97;;;;;;;;;;5036896;28;20274;-79
2024/01/01 04:41:09;;;;;;;19.17;7.60;;;;;;;;;;5036518;28;20025;-79
2024/01/01 04:43:39;;;;;;;14.57;6.75;;;;;;;;;;5036409;28;20112;-79
2024/01/01 04:46:04;;;;;;;17.23;7.00;;;;;;;;;;5037339;28;20108;-79
2024/01/01 04:48:30;;;;;;;15.73;6.87;;;;;;;;;;5037443;28;20072;-79
2024/01/01 04:50:55;;;;;;;13.70;6.38;;;;;;;;;;5035910;28;20259;-80
2024/01/01 04:53:20;;;;;;;14.13;6.22;;;;;;;;;;5036512;28;20025;-80
2024/01/01 04:55:45;;;;;;;17.73;6.13;;;;;;;;;;5037526;28;20025;-80
2024/01/01 04:58:11;;;;;;;12.10;6.35;;;;;;;;;;5038391;28;20020;-80
2024/01/01 05:00:36;;;;;;;12.27;6.10;;;;;;;;;;5037255;28;20116;-80
2024/01/01 05:03:01;;;;;;;14.65;6.40;;;;;;;;;;5034809;28;20033;-79
2024/01/01 05:05:26;;;;;;;15.40;7.00;;;;;;;;;;5036980;28;20467;-79
2024/01/01 05:07:53;;;;;;;12.70;5.77;;;;;;;;;;5036955;28;20025;-79
2024/01/01 05:10:18;;;;;;;12.45;5.65;;;;;;;;;;5036952;28;20258;-79
2024/01/01 05:12:44;;;;;;;12.38;5.75;;;;;;;;;;5034919;28;20400;-79
2024/01/01 05:15:11;;;;;;;12.77;5.88;;;;;;;;;;5035327;28;20033;-79
2024/01/01 05:17:37;;;;;;;11.23;4.70;;;;;;;;;;5037093;28;20032;-79
2024/01/01 05:20:03;;;;;;;14.25;5.97;;;;;;;;;;5036310;28;20029;-79
2024/01/01 05:22:29;;;;;;;11.48;4.97;;;;;;;;;;5037127;28;20029;-79
2024/01/01 05:24:54;;;;;;;14.23;5.22;;;;;;;;;;5037406;28;20091;-80
2024/01/01 05:27:20;;;;;;;10.88;4.72;;;;;;;;;;5037456;28;20095;-79
2024/01/01 05:29:45;;;;;;;8.40;4.85;;;;;;;;;;5036036;28;20037;-80
2024/01/01 05:32:10;;;;;;;13.23;4.82;;;;;;;;;;5036090;28;20044;-80
2024/01/01 05:34:35;;;;;;;12.80;5.45;;;;;;;;;;5035968;28;20044;-80
2024/01/01 05:37:01;;;;;;;13.00;5.60;;;;;;;;;;5037251;28;20014;-80
2024/01/01 05:39:26;;;;;;;15.90;5.88;;;;;;;;;;5037272;28;20029;-80
2024/01/01 05:41:51;;;;;;;9.98;4.68;;;;;;;;;;5037290;28;20037;-79
2024/01/01 05:44:16;;;;;;;10.10;4.70;;;;;;;;;;5036813;28;20025;-80
2024/01/01 05:46:42;;;;;;;12.05;3.95;;;;;;;;;;5037792;28;20282;-80
2024/01/01 05:49:07;;;;;;;8.97;3.83;;;;;;;;;;5036986;28;20120;-80
2024/01/01 05:51:32;;;;;;;6.80;3.43;;;;;;;;;;5036678;28;20290;-80
2024/01/01 05:53:57;;;;;;;8.67;3.90;;;;;;;;;;5036807;28;20251;-81
2024/01/01 05:56:24;;;;;;;8.40;4.03;;;;;;;;;;5036601;28;20285;-80
2024/01/01 05:58:49;;;;;;;6.97;3.53;;;;;;;;;;5036767;28;20116;-80
2024/01/01 06:01:14;;;;;;;9.20;3.43;;;;;;;;;;5036996;28;20068;-80
2024/01/01 06:03:40;;;;;;;7.85;3.80;;;;;;;;;;5036895;28;20263;-80
2024/01/01 06:06:09;;;;;;;10.88;3.72;;;;;;;;;;5036587;28;20021;-80
2024/01/01 06:08:34;;;;;;;8.13;3.65;;;;;;;;;;5036681;28;20494;-80
2024/01/01 06:11:00;;;;;;;8.00;3.58;;;;;;;;;;5034822;28;20072;-80
2024/01/01 06:13:25;;;;;;;9.77;4.07;;;;;;;;;;5036235;28;20034;-80
2024/01/01 06:15:51;;;;;;;12.20;4.13;;;;;;;;;;5036377;28;20164;-80
2024/01/01 06:18:16;;;;;;;9.75;3.70;;;;;;;;;;5036458;28;20022;-80
2024/01/01 06:20:41;;;;;;;8.32;4.03;;;;;;;;;;5035334;28;20043;-80
2024/01/01 06:23:06;;;;;;;8.27;4.10;;;;;;;;;;5035023;28;20083;-80
2024/01/01 06:25:32;;;;;;;8.57;3.97;;;;;;;;;;5037762;28;20263;-80
2024/01/01 06:27:57;;;;;;;8.70;4.33;;;;;;;;;;5036683;28;20407;-80
2024/01/01 06:30:22;;;;;;;9.60;4.77;;;;;;;;;;5036490;28;20266;-80
2024/01/01 06:32:48;;;;;;;13.65;4.50;;;;;;;;;;5035399;28;20282;-80
2024/01/01 06:35:13;;;;;;;9.52;4.70;;;;;;;;;;5036179;28;20041;-79
2024/01/01 06:37:38;;;;;;;12.73;4.70;;;;;;;;;;5035464;28;20026;-80
2024/01/01 06:40:06;;;;;;;10.40;4.88;;;;;;;;;;5035576;28;20048;-80
2024/01/01 06:42:31;;;;;;;11.35;4.55;;;;;;;;;;5039591;28;20022;-80
2024/01/01 06:45:00;;;;;;;11.07;5.20;;;;;;;;;;5045240;28;20445;-79
2024/01/01 06:47:25;;;;;;;12.55;4.85;;;;;;;;;;5046122;28;20266;-79
2024/01/01 06:49:50;;;;;;;11.87;5.00;;;;;;;;;;5045823;28;20014;-80
2024/01/01 06:52:15;;;;;;;12.65;5.28;;;;;;;;;;5038114;28;20285;-80
2024/01/01 06:54:41;;;;;;;11.87;5.67;;;;;;;;;;5036786;28;20110;-80
2024/01/01 06:57:06;;;;;;;11.23;5.10;;;;;;;;;;5035375;28;20267;-80
2024/01/01 06:59:31;;;;;;;13.63;5.20;;;;;;;;;;5034815;28;20037;-79
2024/01/01 07:01:58;;;;;;;12.10;5.47;;;;;;;;;;5035874;28;20037;-80
2024/01/01 07:04:25;;;;;;;15.40;5.30;;;;;;;;;;5036354;28;20342;-80
2024/01/01 07:06:50;;;;;;;12.02;5.43;;;;;;;;;;5034682;28;20520;-79
2024/01/01 07:09:16;;;;;;;11.00;4.60;;;;;;;;;;5035926;28;20033;-80
2024/01/01 07:11:41;;;;;;;8.65;4.70;;;;;;;;;;5036698;28;20082;-80
2024/01/01 07:14:06;;;;;;;9.30;4.05;;;;;;;;;;5035493;28;20033;-79
2024/01/01 07:16:32;;;;;;;8.00;4.07;;;;;;;;;;5040046;28;20033;-80
2024/01/01 07:18:57;;;;;;;9.23;4.13;;;;;;;;;;5039159;28;20258;-80
2024/01/01 07:21:22;;;;;;;8.38;4.05;;;;;;;;;;5039951;28;20261;-79
2024/01/01 07:23:48;;;;;;;7.43;3.67;;;;;;;;;;5039520;28;20491;-80
2024/01/01 07:26:13;;;;;;;9.85;3.92;;;;;;;;;;5038243;28;20750;-80
2024/01/01 07:28:38;;;;;;;6.65;3.70;;;;;;;;;;5039685;28;20057;-80
2024/01/01 07:31:03;;;;;;;6.82;3.72;;;;;;;;;;5039473;28;20033;-80
2024/01/01 07:33:29;;;;;;;8.68;3.42;;;;;;;;;;5037588;28;20040;-80
2024/01/01 07:35:54;;;;;;;7.28;3.35;;;;;;;;;;5039362;28;20135;-80
2024/01/01 07:38:20;;;;;;;6.45;3.40;;;;;;;;;;5039203;28;20018;-80
2024/01/01 07:40:45;;;;;;;9.68;4.05;;;;;;;;;;5039182;28;20060;-80
2024/01/01 07:43:10;;;;;;;6.05;3.60;;;;;;;;;;5037889;28;20034;-80
2024/01/01 07:45:35;;;;;;;6.43;3.33;;;;;;;;;;5037501;28;20025;-80
2024/01/01 07:48:01;;;;;;;11.85;3.38;;;;;;;;;;5038879;28;20371;-80
2024/01/01 07:50:26;;;;;;;6.25;3.40;;;;;;;;;;5038915;28;20025;-80
2024/01/01 07:52:52;;;;;;;10.40;3.95;;;;;;;;;;5039842;28;20076;-80
2024/01/01 07:55:18;;;;;;;9.77;3.90;;;;;;;;;;5038292;28;20067;-80
2024/01/01 07:57:46;;;;;;;9.07;3.85;;;;;;;;;;5038732;28;20014;-80
2024/01/01 08:00:12;;;;;;;10.65;4.38;;;;;;;;;;5038674;28;20025;-80
2024/01/01 08:02:37;;;;;;;6.45;3.45;;;;;;;;;;5038336;28;20037;-80
2024/01/01 08:05:02;;;;;;;9.27;4.13;;;;;;;;;;5038880;28;20037;-80
2024/01/01 08:07:27;;;;;;;8.60;3.80;;;;;;;;;;5037565;28;20021;-81
2024/01/01 08:09:53;;;;;;;9.47;3.90;;;;;;;;;;5038942;28;20098;-80
2024/01/01 08:12:18;;;;;;;10.23;4.15;;;;;;;;;;5038170;28;20254;-80
2024/01/01 08:14:43;;;;;;;8.57;3.80;;;;;;;;;;5038684;28;20025;-80
2024/01/01 08:17:08;;;;;;;13.03;4.23;;;;;;;;;;5038220;28;20276;-80
2024/01/01 08:19:34;;;;;;;9.95;4.30;;;;;;;;;;5039122;28;20263;-80
2024/01/01 08:21:59;;;;;;;11.55;4.25;;;;;;;;;;5037418;28;20025;-80
2024/01/01 08:24:25;;;;;;;8.37;4.03;;;;;;;;;;5038624;28;20025;-81
2024/01/01 08:26:50;;;;;;;8.07;3.97;;;;;;;;;;5035701;28;20332;-80
2024/01/01 08:29:15;;;;;;;7.25;3.75;;;;;;;;;;5037698;28;20061;-80
2024/01/01 08:31:40;;;;;;;7.73;3.87;;;;;;;;;;5037501;28;20030;-80
2024/01/01 08:34:06;;;;;;;8.93;4.00;;;;;;;;;;5037786;28;20373;-80
2024/01/01 08:36:31;;;;;;;7.28;3.85;;;;;;;;;;5037920;28;20021;-80
2024/01/01 08:38:56;;;;;;;10.32;4.40;;;;;;;;;;5038236;28;20025;-80
2024/01/01 08:41:22;;;;;;;8.97;3.90;;;;;;;;;;5038559;28;20091;-79
2024/01/01 08:43:50;;;;;;;10.15;4.13;;;;;;;;;;5038253;28;20258;-80
2024/01/01 08:46:15;;;;;;;8.40;3.47;;;;;;;;;;5036403;28;20025;-79
2024/01/01 08:48:40;;;;;;;7.60;3.35;;;;;;;;;;5038403;28;20523;-80
2024/01/01 08:51:05;;;;;;;9.52;3.95;;;;;;;;;;5037799;28;20104;-80
2024/01/01 08:53:32;;;;;;;10.57;3.72;;;;;;;;;;5038621;28;20057;-80
2024/01/01 08:55:57;;;;;;;9.88;2.97;;;;;;;;;;5038375;28;20032;-79
2024/01/01 08:58:23;;;;;;;7.33;2.80;;;;;;;;;;5020561;28;20029;-79
2024/01/01 09:00:48;;;;;;;7.03;2.58;;;;;;;;;;5038470;28;20358;-80
2024/01/01 09:03:13;;;;;;;5.15;2.25;;;;;;;;;;5037882;28;20038;-80
2024/01/01 09:05:38;;;;;;;7.13;2.35;;;;;;;;;;5037959;28;20172;-79
2024/01/01 09:08:04;;;;;;;2.90;2.00;;;;;;;;;;5037465;28;20029;-79
2024/01/01 09:10:30;;;;;;;6.35;2.47;;;;;;;;;;5037389;28;20274;-79
2024/01/01 09:12:55;;;;;;;8.05;2.22;;;;;;;;;;5037427;28;20435;-80
2024/01/01 09:15:20;;;;;;;8.05;2.53;;;;;;;;;;5037933;28;20401;-80
2024/01/01 09:17:45;;;;;;;5.37;2.37;;;;;;;;;;5035640;28;20401;-79
2024/01/01 09:20:11;;;;;;;6.33;2.20;;;;;;;;;;5037199;28;20741;-80
2024/01/01 09:22:37;;;;;;;6.90;2.35;;;;;;;;;;5037336;28;20809;-80
2024/01/01 09:25:02;;;;;;;5.25;2.35;;;;;;;;;;5037607;28;20037;-79
2024/01/01 09:27:27;;;;;;;5.75;2.40;;;;;;;;;;5037060;28;20481;-80
2024/01/01 09:29:53;;;;;;;8.13;2.50;;;;;;;;;;5035099;28;20026;-79
2024/01/01 09:32:18;;;;;;;6.18;2.20;;;;;;;;;;5036801;28;20029;-80
2024/01/01 09:34:43;;;;;;;5.20;2.20;;;;;;;;;;5035499;28;20033;-80
2024/01/01 09:37:08;;;;;;;4.80;2.13;;;;;;;;;;5034994;28;20263;-79
2024/01/01 09:39:34;;;;;;;4.67;2.27;;;;;;;;;;5035763;28;20267;-81
2024/01/01 09:42:03;;;;;;;6.82;2.17;;;;;;;;;;5034699;28;20417;-80
2024/01/01 09:44:28;;;;;;;5.07;2.00;;;;;;;;;;5034556;28;20120;-80
2024/01/01 09:46:54;;;;;;;4.90;1.50;;;;;;;;;;5035558;28;20057;-80
2024/01/01 09:49:19;;;;;;;4.35;2.00;;;;;;;;;;5034601;28;20408;-80
2024/01/01 09:51:44;;;;;;;3.27;1.83;;;;;;;;;;5035444;28;20072;-80
2024/01/01 09:54:09;;;;;;;5.87;2.03;;;;;;;;;;5033800;28;20668;-79
2024/01/01 09:56:35;;;;;;;7.63;2.00;;;;;;;;;;5035361;28;20629;-78
2024/01/01 09:59:00;;;;;;;5.40;1.75;;;;;;;;;;5044569;28;20049;-78
2024/01/01 10:01:26;;;;;;;8.88;2.20;;;;;;;;;;5048790;28;20059;-79
2024/01/01 10:04:07;;;;;;;5.43;1.80;;;;;;;;;;5038982;28;20033;-81
2024/01/01 10:06:34;;;;;;;4.82;2.00;;;;;;;;;;5035928;28;20033;-81
2024/01/01 10:09:12;;;;;;;7.50;2.10;;;;;;;;;;5036067;28;20041;-80
2024/01/01 10:11:42;;;;;;;5.63;1.80;;;;;;;;;;5034264;28;20033;-80
2024/01/01 10:14:09;;;;;;;4.22;1.75;;;;;;;;;;5035903;28;20180;-80
2024/01/01 10:16:35;;;;;;;5.82;1.65;;;;;;;;;;5035423;28;20144;-79
2024/01/01 10:19:01;;;;;;;3.10;1.60;;;;;;;;;;5036269;28;20057;-80
2024/01/01 10:21:44;;;;;;;4.15;1.40;;;;;;;;;;5036276;28;20025;-80
2024/01/01 10:24:17;;;;;;;4.97;1.60;;;;;;;;;;5036232;28;20025;-79
2024/01/01 10:26:45;;;;;;;2.40;1.40;;;;;;;;;;5036048;28;20290;-79
2024/01/01 10:29:12;;;;;;;6.07;1.45;;;;;;;;;;5036107;28;20029;-80
2024/01/01 10:31:44;;;;;;;7.65;1.75;;;;;;;;;;5036051;28;20033;-80
2024/01/01 10:34:12;;;;;;;5.05;1.80;;;;;;;;;;5036237;28;20033;-80
2024/01/01 10:36:39;;;;;;;3.92;1.45;;;;;;;;;;5035477;28;20022;-80
2024/01/01 10:39:05;;;;;;;4.13;1.70;;;;;;;;;;5035448;28;20021;-80
2024/01/01 10:41:33;;;;;;;2.50;1.15;;;;;;;;;;5036471;28;20144;-80
2024/01/01 10:43:59;;;;;;;4.05;1.33;;;;;;;;;;5036300;28;20500;-80
2024/01/01 10:46:25;;;;;;;7.95;1.70;;;;;;;;;;5036050;28;20029;-80
2024/01/01 10:48:52;;;;;;;6.03;1.50;;;;;;;;;;5034816;28;20171;-80
2024/01/01 10:51:29;;;;;;;5.88;1.63;;;;;;;;;;5039599;28;20060;-80
2024/01/01 10:54:22;;;;;;;7.65;1.85;;;;;;;;;;5038439;28;20068;-80
2024/01/01 10:57:15;;;;;;;4.05;1.30;;;;;;;;;;5022334;28;20075;-80
2024/01/01 10:59:49;;;;;;;2.80;1.13;;;;;;;;;;5039974;28;20030;-80
2024/01/01 11:02:15;;;;;;;5.75;1.50;;;;;;;;;;5040873;28;20071;-80
2024/01/01 11:04:40;;;;;;;4.35;1.58;;;;;;;;;;5040792;28;20492;-80
2024/01/01 11:07:05;;;;;;;5.32;1.90;;;;;;;;;;5041068;28;20101;-79
2024/01/01 11:09:31;;;;;;;7.65;2.55;;;;;;;;;;5039578;28;20017;-78
2024/01/01 11:11:59;;;;;;;1.52;0.95;;;;;;;;;;5039011;28;20033;-80
2024/01/01 11:14:32;;;;;;;7.10;2.90;;;;;;;;;;5039369;28;20033;-80
2024/01/01 11:17:06;;;;;;;5.97;2.28;;;;;;;;;;5040174;28;20108;-81
2024/01/01 11:19:42;;;;;;;5.47;1.63;;;;;;;;;;5039924;28;20377;-80
2024/01/01 11:22:33;;;;;;;3.75;1.63;;;;;;;;;;5039401;28;20028;-79
2024/01/01 11:24:59;;;;;;;8.02;1.55;;;;;;;;;;5021965;28;20033;-80
2024/01/01 11:27:35;;;;;;;3.63;1.40;;;;;;;;;;5039568;28;20022;-80
2024/01/01 11:30:04;;;;;;;5.10;1.48;;;;;;;;;;5039751;28;20039;-80
2024/01/01 11:32:29;;;;;;;4.78;1.27;;;;;;;;;;5022587;28;20021;-80
2024/01/01 11:35:16;;;;;;;9.93;1.60;;;;;;;;;;5038872;28;20048;-80
2024/01/01 11:37:43;;;;;;;5.03;1.30;;;;;;;;;;5038759;28;20028;-80
2024/01/01 11:40:09;;;;;;;3.15;1.17;;;;;;;;;;5038729;28;20033;-81
2024/01/01 11:42:35;;;;;;;5.68;1.48;;;;;;;;;;5021895;28;20075;-80
2024/01/01 11:45:10;;;;;;;3.63;1.10;;;;;;;;;;5037532;28;20033;-79
2024/01/01 11:47:37;;;;;;;4.85;1.40;;;;;;;;;;5037922;28;20029;-80
2024/01/01 11:50:04;;;;;;;4.75;1.23;;;;;;;;;;5039529;28;20512;-81
2024/01/01 11:52:30;;;;;;;5.65;1.50;;;;;;;;;;5022785;28;20069;-80
2024/01/01 11:54:55;;;;;;;4.35;1.20;;;;;;;;;;5039833;28;20045;-79
2024/01/01 11:57:28;;;;;;;4.38;1.20;;;;;;;;;;5039981;28;20433;-81
2024/01/01 11:59:57;;;;;;;4.72;1.20;;;;;;;;;;5039778;28;20028;-81
2024/01/01 12:02:23;;;;;;;3.78;1.08;;;;;;;;;;5022018;28;20094;-81
2024/01/01 12:04:53;;;;;;;4.88;1.30;;;;;;;;;;5037289;28;20029;-80
2024/01/01 12:07:32;;;;;;;3.92;1.38;;;;;;;;;;5038801;28;20037;-80
2024/01/01 12:10:06;;;;;;;4.28;1.10;;;;;;;;;;5038107;28;20106;-81
2024/01/01 12:12:33;;;;;;;3.47;1.05;;;;;;;;;;5021646;28;20068;-79
2024/01/01 12:15:12;;;;;;;4.25;1.50;;;;;;;;;;5038053;28;20108;-80
2024/01/01 12:17:44;;;;;;;3.28;1.17;;;;;;;;;;5038868;28;20100;-78
2024/01/01 12:20:14;;;;;;;6.68;1.45;;;;;;;;;;5037571;28;20120;-81
2024/01/01 12:22:39;;;;;;;5.50;1.30;;;;;;;;;;5021594;28;20504;-80
2024/01/01 12:25:06;;;;;;;6.20;1.20;;;;;;;;;;5037070;28;20029;-80
2024/01/01 12:27:40;;;;;;;2.92;1.13;;;;;;;;;;5038487;28;20108;-82
2024/01/01 12:30:27;;;;;;;3.88;1.25;;;;;;;;;;5038164;28;20030;-80
2024/01/01 12:32:54;;;;;;;3.17;1.08;;;;;;;;;;5038997;28;20025;-81
2024/01/01 12:35:20;;;;;;;4.82;0.90;;;;;;;;;;5037911;28;20025;-81
2024/01/01 12:37:48;;;;;;;2.40;1.02;;;;;;;;;;5037539;28;20024;-81
2024/01/01 12:40:16;;;;;;;2.75;1.20;;;;;;;;;;5038735;28;20507;-80
2024/01/01 12:42:45;;;;;;;4.07;0.98;;;;;;;;;;5038614;28;20037;-81
2024/01/01 12:45:12;;;;;;;3.00;1.10;;;;;;;;;;5038843;28;20029;-81
2024/01/01 12:47:38;;;;;;;5.35;1.10;;;;;;;;;;5038772;28;20080;-79
2024/01/01 12:50:05;;;;;;;1.58;0.70;;;;;;;;;;5020838;28;20448;-79
2024/01/01 12:52:32;;;;;;;1.58;0.82;;;;;;;;;;5038839;28;20029;-80
2024/01/01 12:54:58;;;;;;;3.03;0.80;;;;;;;;;;5020355;28;20068;-79
2024/01/01 12:57:23;;;;;;;2.73;0.80;;;;;;;;;;5036934;28;20021;-80
2024/01/01 12:59:48;;;;;;;3.57;0.60;;;;;;;;;;5038280;28;20275;-79
2024/01/01 13:02:13;;;;;;;1.17;0.77;;;;;;;;;;5038554;28;20262;-80
2024/01/01 13:04:38;;;;;;;1.33;0.97;;;;;;;;;;5038749;28;20324;-80
2024/01/01 13:07:04;;;;;;;0.90;0.77;;;;;;;;;;5038512;28;20283;-80
2024/01/01 13:09:29;;;;;;;3.33;0.90;;;;;;;;;;5039563;28;20255;-79
2024/01/01 13:11:54;;;;;;;5.70;1.00;;;;;;;;;;5037113;28;20021;-78
2024/01/01 13:14:19;;;;;;;2.05;0.90;;;;;;;;;;5038809;28;20262;-78
2024/01/01 13:16:47;;;;;;;3.10;0.75;;;;;;;;;;5038471;28;20029;-80
2024/01/01 13:19:13;;;;;;;3.20;0.88;;;;;;;;;;5040196;28;20485;-80
2024/01/01 13:21:38;;;;;;;4.22;0.90;;;;;;;;;;5058585;28;20039;-79
2024/01/01 13:24:04;;;;;;;2.03;0.65;;;;;;;;;;5058715;28;20025;-79
2024/01/01 13:26:29;;;;;;;3.08;0.88;;;;;;;;;;5057517;28;20427;-80
2024/01/01 13:28:54;;;;;;;1.97;0.73;;;;;;;;;;5058560;28;20037;-80
2024/01/01 13:31:21;;;;;;;3.47;0.88;;;;;;;;;;5057895;28;20274;-79
2024/01/01 13:33:46;;;;;;;3.22;1.00;;;;;;;;;;5058079;28;20056;-80
2024/01/01 13:36:12;;;;;;;3.35;1.13;;;;;;;;;;5057880;28;20032;-80
2024/01/01 13:38:38;;;;;;;3.47;1.20;;;;;;;;;;5040723;28;20506;-80
2024/01/01 13:41:04;;;;;;;2.45;1.10;;;;;;;;;;5057331;28;20028;-80
2024/01/01 13:43:29;;;;;;;2.25;1.02;;;;;;;;;;5040791;28;20380;-79
2024/01/01 13:45:54;;;;;;;2.50;1.27;;;;;;;;;;5058532;28;20033;-80
2024/01/01 13:48:20;;;;;;;1.92;0.70;;;;;;;;;;5058209;28;20304;-80
2024/01/01 13:50:45;;;;;;;4.25;0.93;;;;;;;;;;5058335;28;20522;-80
2024/01/01 13:53:11;;;;;;;2.78;0.98;;;;;;;;;;5058466;28;20025;-80
2024/01/01 13:55:36;;;;;;;3.22;0.75;;;;;;;;;;5040453;28;20036;-80
2024/01/01 13:58:03;;;;;;;2.15;0.93;;;;;;;;;;5058389;28;20032;-80
2024/01/01 14:00:29;;;;;;;3.13;1.05;;;;;;;;;;5057549;28;20025;-79
2024/01/01 14:02:54;;;;;;;2.97;0.88;;;;;;;;;;5056972;28;20395;-80
2024/01/01 14:05:20;;;;;;;2.10;0.90;;;;;;;;;;5038778;28;20048;-80
2024/01/01 14:07:47;;;;;;;3.67;0.70;;;;;;;;;;5056889;28;20458;-79
2024/01/01 14:10:13;;;;;;;3.17;0.85;;;;;;;;;;5056817;28;20021;-79
2024/01/01 14:12:38;;;;;;;1.60;0.70;;;;;;;;;;5056304;28;20476;-78
2024/01/01 14:15:04;;;;;;;2.43;0.77;;;;;;;;;;5057191;28;20025;-80
2024/01/01 14:17:29;;;;;;;4.05;0.82;;;;;;;;;;5056632;28;20308;-79
2024/01/01 14:19:54;;;;;;;2.03;0.70;;;;;;;;;;5056722;28;20476;-79
2024/01/01 14:22:20;;;;;;;4.68;1.73;;;;;;;;;;5057267;28;20765;-79
2024/01/01 14:24:45;;;;;;;2.97;1.20;;;;;;;;;;5055684;28;20031;-79
2024/01/01 14:27:11;;;;;;;5.22;0.73;;;;;;;;;;5038717;28;20290;-79
2024/01/01 14:29:37;;;;;;;2.97;0.75;;;;;;;;;;5055642;28;20500;-80